Time;durP1;ratioP1;P1;durP2;ratioP2;P2;SDS_P1;SDS_P2;PMS_P1;PMS_P2;Temp;Humidity;BMP_temperature;BMP_pressure;BME280_temperature;BME280_humidity;BME280_pressure;Samples;Min_cycle;Max_cycle;Signal;HPM_P1;HPM_P2
2022/12/09 00:02:06;;;;;;;;;55.33;42.67;;;;;5.79;100.00;99988.59;6258961;22;44744;-82
2022/12/09 00:04:32;;;;;;;;;42.33;36.00;;;;;5.76;100.00;99982.41;6229640;22;45507;-82
2022/12/09 00:06:59;;;;;;;;;40.33;33.33;;;;;5.72;100.00;99985.84;6255147;22;45343;-82
2022/12/09 00:09:25;;;;;;;;;53.00;39.00;;;;;5.64;100.00;99972.47;6255879;22;45235;-82
2022/12/09 00:11:59;;;;;;;;;61.00;47.33;;;;;5.68;100.00;99970.81;6227084;22;45403;-82
2022/12/09 00:14:30;;;;;;;;;51.33;41.00;;;;;5.65;100.00;99962.81;6253851;22;45348;-82
2022/12/09 00:16:55;;;;;;;;;53.33;43.33;;;;;5.61;100.00;99967.13;6254554;22;45824;-83
2022/12/09 00:19:21;;;;;;;;;47.00;39.67;;;;;5.56;100.00;99968.78;6226234;22;46827;-82
2022/12/09 00:21:46;;;;;;;;;58.00;45.00;;;;;5.45;100.00;99971.16;6254919;22;45275;-82
2022/12/09 00:24:13;;;;;;;;;45.67;41.00;;;;;5.44;100.00;99971.16;6255090;22;45327;-82
2022/12/09 00:26:40;;;;;;;;;45.33;40.67;;;;;5.41;100.00;99975.50;6227898;22;45465;-83
2022/12/09 00:29:06;;;;;;;;;56.67;43.00;;;;;5.41;100.00;99977.22;6227420;22;47085;-83
2022/12/09 00:31:33;;;;;;;;;47.67;41.00;;;;;5.45;100.00;99973.78;6238311;22;45463;-82
2022/12/09 00:34:02;;;;;;;;;51.67;44.33;;;;;5.51;100.00;99970.41;6226809;22;45290;-82
2022/12/09 00:36:29;;;;;;;;;47.00;41.33;;;;;5.46;100.00;99956.25;6226506;22;45722;-83
2022/12/09 00:42:16;;;;;;;;;50.33;41.33;;;;;5.46;100.00;99957.13;6253497;22;45483;-82
2022/12/09 00:44:41;;;;;;;;;41.67;39.00;;;;;5.51;100.00;99957.22;6225409;22;45415;-82
2022/12/09 00:47:07;;;;;;;;;52.33;41.67;;;;;5.48;100.00;99949.25;6254739;22;45362;-83
2022/12/09 00:49:33;;;;;;;;;45.00;40.00;;;;;5.49;100.00;99953.66;6251352;22;46756;-83
2022/12/09 00:51:59;;;;;;;;;47.67;41.00;;;;;5.39;100.00;99942.94;6200854;22;45665;-83
2022/12/09 00:54:24;;;;;;;;;50.00;44.33;;;;;5.36;100.00;99940.22;6251111;22;44905;-83
2022/12/09 00:56:50;;;;;;;;;50.00;41.33;;;;;5.45;100.00;99951.81;6253102;22;45238;-83
2022/12/09 00:59:16;;;;;;;;;46.33;41.00;;;;;5.35;100.00;99933.19;6225227;22;47376;-83
2022/12/09 01:01:42;;;;;;;;;45.33;40.33;;;;;5.34;100.00;99935.78;6224877;22;45369;-82
2022/12/09 01:04:07;;;;;;;;;49.33;42.67;;;;;5.38;100.00;99943.78;6224477;22;45273;-82
2022/12/09 01:06:33;;;;;;;;;48.33;40.67;;;;;5.44;100.00;99939.50;6252272;22;44878;-82
2022/12/09 01:12:20;;;;;;;;;48.33;38.00;;;;;5.38;100.00;99935.88;6253573;22;45251;-82
2022/12/09 01:14:46;;;;;;;;;42.00;37.00;;;;;5.35;100.00;99932.25;6255162;22;45254;-82
2022/12/09 01:17:12;;;;;;;;;52.00;41.00;;;;;5.35;100.00;99932.25;6253018;22;45314;-82
2022/12/09 01:19:39;;;;;;;;;45.00;36.67;;;;;5.36;100.00;99939.34;6253826;22;45404;-82
2022/12/09 01:22:04;;;;;;;;;50.33;41.33;;;;;5.36;100.00;99934.06;6224652;22;45263;-82
2022/12/09 01:24:31;;;;;;;;;56.67;45.00;;;;;5.28;100.00;99920.69;6225830;22;45429;-83
2022/12/09 01:26:56;;;;;;;;;39.67;37.00;;;;;5.27;100.00;99926.84;6249505;22;45501;-84
2022/12/09 01:29:22;;;;;;;;;36.00;29.00;;;;;5.26;100.00;99937.34;6251305;22;46083;-83
2022/12/09 01:31:49;;;;;;;;;43.00;36.00;;;;;5.20;100.00;99923.16;6250687;22;45528;-83
2022/12/09 01:34:14;;;;;;;;;40.00;37.00;;;;;5.22;100.00;99934.63;6224905;22;44820;-83
2022/12/09 01:36:40;;;;;;;;;45.00;36.67;;;;;5.16;100.00;99925.69;6225072;22;44891;-82
2022/12/09 01:39:05;;;;;;;;;47.00;39.67;;;;;5.22;100.00;99939.03;6225672;22;47221;-82
2022/12/09 01:41:31;;;;;;;;;49.33;39.33;;;;;5.17;100.00;99931.03;6224260;22;45398;-82
2022/12/09 01:44:07;;;;;;;;;43.33;38.67;;;;;5.28;100.00;99946.19;6224536;22;45113;-83
2022/12/09 01:46:34;;;;;;;;;46.33;39.33;;;;;5.33;100.00;99947.16;6253231;22;45261;-83
2022/12/09 01:52:22;;;;;;;;;44.67;35.00;;;;;5.36;100.00;99947.25;6255617;22;45341;-83
2022/12/09 01:54:50;;;;;;;;;44.67;36.00;;;;;5.27;100.00;99941.75;6225328;22;45309;-83
2022/12/09 01:57:16;;;;;;;;;54.67;41.33;;;;;5.22;100.00;99941.66;6226805;22;45818;-82
2022/12/09 01:59:43;;;;;;;;;41.67;38.00;;;;;5.14;100.00;99935.31;6225756;22;47627;-83
2022/12/09 02:02:16;;;;;;;;;38.33;33.33;;;;;5.18;100.00;99939.81;6253890;22;45267;-83
2022/12/09 02:04:44;;;;;;;;;39.00;34.67;;;;;5.15;100.00;99934.44;6228185;22;45331;-83
2022/12/09 02:07:10;;;;;;;;;46.33;36.67;;;;;5.19;100.00;99941.56;6252823;22;45398;-82
2022/12/09 02:09:38;;;;;;;;;47.00;40.67;;;;;5.20;100.00;99931.06;6253701;22;46172;-82
2022/12/09 02:12:14;;;;;;;;;48.33;40.00;;;;;5.30;100.00;99933.94;6227670;22;45574;-83
2022/12/09 02:15:04;;;;;;;;;35.33;29.67;;;;;5.32;100.00;99933.09;6226603;22;44807;-82
2022/12/09 02:17:40;;;;;;;;;43.67;34.67;;;;;5.29;100.00;99930.41;6224537;22;45370;-82
2022/12/09 02:20:38;;;;;;;;;44.33;38.67;;;;;5.33;100.00;99933.97;6223787;22;48045;-82
2022/12/09 02:23:17;;;;;;;;;50.00;38.67;;;;;5.31;100.00;99926.06;6223541;22;45731;-83
2022/12/09 02:26:03;;;;;;;;;35.33;31.67;;;;;5.27;100.00;99916.31;6225117;22;45474;-82
2022/12/09 02:28:56;;;;;;;;;44.67;38.00;;;;;5.28;100.00;99925.97;6223047;22;45343;-83
2022/12/09 02:31:46;;;;;;;;;46.67;39.33;;;;;5.19;100.00;99920.47;6217400;22;45328;-83
2022/12/09 02:34:25;;;;;;;;;37.33;32.67;;;;;5.18;100.00;99916.97;6219792;22;45453;-83
2022/12/09 02:37:18;;;;;;;;;48.00;41.33;;;;;5.14;100.00;99928.28;6218448;22;45450;-83
2022/12/09 02:40:06;;;;;;;;;45.67;36.67;;;;;5.13;100.00;99922.97;6223434;22;45350;-82
2022/12/09 02:42:35;;;;;;;;;47.33;34.67;;;;;5.13;100.00;99922.97;6220253;22;46819;-82
2022/12/09 02:45:04;;;;;;;;;39.33;34.67;;;;;5.15;100.00;99919.56;6221483;22;45827;-82
2022/12/09 02:47:33;;;;;;;;;41.00;38.67;;;;;5.18;100.00;99910.81;6221439;22;45770;-82
2022/12/09 02:50:06;;;;;;;;;38.00;34.33;;;;;5.13;100.00;99916.00;6243641;22;45502;-82
2022/12/09 02:52:35;;;;;;;;;44.67;37.67;;;;;5.06;100.00;99911.41;6219197;22;46676;-82
2022/12/09 02:55:05;;;;;;;;;50.67;42.00;;;;;5.07;100.00;99909.66;6219965;22;45335;-82
2022/12/09 02:57:32;;;;;;;;;26.67;23.67;;;;;5.06;100.00;99908.78;6218214;22;45452;-82
2022/12/09 02:59:58;;;;;;;;;38.33;35.33;;;;;5.01;100.00;99910.44;6221873;22;45351;-82
2022/12/09 03:02:30;;;;;;;;;38.33;27.33;;;;;4.95;100.00;99918.22;6218384;22;47922;-82
2022/12/09 03:05:37;;;;;;;;;44.00;39.00;;;;;4.82;100.00;99915.25;6219199;22;45259;-82
2022/12/09 03:08:45;;;;;;;;;35.00;28.67;;;;;4.75;100.00;99917.72;6244494;22;45413;-82
2022/12/09 03:11:15;;;;;;;;;33.67;29.67;;;;;4.63;100.00;99912.16;6221501;22;45317;-82
2022/12/09 03:14:01;;;;;;;;;43.67;35.67;;;;;4.63;100.00;99913.03;6220964;22;45447;-82
2022/12/09 03:16:53;;;;;;;;;44.33;32.00;;;;;4.57;100.00;99903.25;6219547;22;45361;-81
2022/12/09 03:19:34;;;;;;;;;43.67;35.00;;;;;4.64;100.00;99913.94;6220467;22;45245;-83
2022/12/09 03:22:12;;;;;;;;;47.67;34.33;;;;;4.63;100.00;99906.91;6219350;22;45311;-83
2022/12/09 03:25:07;;;;;;;;;32.33;29.67;;;;;4.60;100.00;99905.97;6222094;22;46099;-83
2022/12/09 03:27:48;;;;;;;;;37.33;31.00;;;;;4.54;100.00;99912.81;6217770;22;45360;-82
2022/12/09 03:30:15;;;;;;;;;34.67;32.00;;;;;4.50;100.00;99895.16;6226188;22;45444;-82
2022/12/09 03:32:44;;;;;;;;;42.67;38.00;;;;;4.53;100.00;99900.50;6223093;22;44844;-82
2022/12/09 03:35:22;;;;;;;;;23.67;20.00;;;;;4.53;100.00;99901.38;6225425;22;45306;-82
2022/12/09 03:37:49;;;;;;;;;35.00;31.00;;;;;4.50;100.00;99900.41;6224304;22;45544;-82
2022/12/09 03:40:26;;;;;;;;;27.00;24.33;;;;;4.40;100.00;99888.75;6220974;22;45319;-83
2022/12/09 03:43:24;;;;;;;;;37.00;31.67;;;;;4.49;100.00;99896.03;6225011;22;45613;-82
2022/12/09 03:45:54;;;;;;;;;34.67;31.00;;;;;4.50;100.00;99890.78;6223165;22;46169;-83
2022/12/09 03:48:21;;;;;;;;;38.33;33.00;;;;;4.50;100.00;99890.78;6223333;22;45397;-83
2022/12/09 03:50:55;;;;;;;;;34.00;31.33;;;;;4.55;100.00;99891.78;6249384;22;44764;-82
2022/12/09 03:53:30;;;;;;;;;25.67;20.67;;;;;4.51;100.00;99895.19;6224694;22;45313;-82
2022/12/09 03:56:05;;;;;;;;;28.33;24.33;;;;;4.50;100.00;99893.41;6223315;22;47948;-82
2022/12/09 03:58:33;;;;;;;;;36.33;28.00;;;;;4.48;100.00;99883.69;6249877;22;45326;-82
2022/12/09 04:01:01;;;;;;;;;31.67;26.00;;;;;4.46;100.00;99874.88;6224815;22;45456;-83
2022/12/09 04:03:26;;;;;;;;;29.67;25.33;;;;;4.52;100.00;99885.53;6226594;22;45425;-82
2022/12/09 04:05:52;;;;;;;;;25.33;20.33;;;;;4.49;100.00;99882.84;6223802;22;47021;-84
2022/12/09 04:08:17;;;;;;;;;21.67;21.00;;;;;4.47;100.00;99880.19;6247439;22;45408;-83
2022/12/09 04:10:42;;;;;;;;;29.67;26.00;;;;;4.49;100.00;99889.00;6222372;22;45339;-83
2022/12/09 04:13:08;;;;;;;;;27.33;25.67;;;;;4.48;100.00;99866.16;6225271;22;45383;-83
2022/12/09 04:15:33;;;;;;;;;24.67;22.33;;;;;4.51;100.00;99860.97;6223240;22;47700;-83
2022/12/09 04:17:59;;;;;;;;;29.00;27.33;;;;;4.59;100.00;99869.94;6220853;22;45412;-82
2022/12/09 04:21:11;;;;;;;;;27.67;24.67;;;;;4.65;100.00;99866.56;6221585;22;45386;-82
2022/12/09 04:23:40;;;;;;;;;34.67;29.00;;;;;4.56;100.00;99856.69;6222739;22;45425;-83
2022/12/09 04:26:06;;;;;;;;;26.67;25.00;;;;;4.62;100.00;99863.84;6222510;22;46892;-83
2022/12/09 04:28:32;;;;;;;;;23.00;21.33;;;;;4.63;100.00;99868.28;6222078;22;45259;-82
2022/12/09 04:30:58;;;;;;;;;31.67;25.00;;;;;4.55;100.00;99867.22;6229627;22;45347;-84
2022/12/09 04:33:24;;;;;;;;;34.00;26.67;;;;;4.47;100.00;99869.66;6254002;22;45332;-82
2022/12/09 04:35:50;;;;;;;;;33.67;26.00;;;;;4.43;100.00;99877.44;6224590;22;46883;-82
2022/12/09 04:38:15;;;;;;;;;31.00;25.67;;;;;4.34;100.00;99863.19;6252721;22;45480;-82
2022/12/09 04:40:40;;;;;;;;;21.00;20.67;;;;;4.35;100.00;99869.34;6254088;22;45361;-82
2022/12/09 04:43:06;;;;;;;;;29.67;23.67;;;;;4.31;100.00;99867.50;6254952;22;45472;-82
2022/12/09 04:45:31;;;;;;;;;27.00;21.33;;;;;4.34;100.00;99872.81;6226879;22;47144;-82
2022/12/09 04:48:03;;;;;;;;;25.33;23.00;;;;;4.29;100.00;99866.56;6255173;22;45352;-82
2022/12/09 04:50:29;;;;;;;;;23.00;18.67;;;;;4.28;100.00;99867.41;6225892;22;45483;-82
2022/12/09 04:52:54;;;;;;;;;28.00;25.67;;;;;4.27;100.00;99877.03;6226168;22;45446;-82
2022/12/09 04:55:20;;;;;;;;;27.67;22.67;;;;;4.17;100.00;99877.66;6226551;22;46868;-82
2022/12/09 04:57:45;;;;;;;;;20.33;18.33;;;;;4.03;100.00;99868.53;6227641;22;44919;-82
2022/12/09 05:00:11;;;;;;;;;27.00;24.33;;;;;3.99;100.00;99857.91;6227263;22;45401;-83
2022/12/09 05:02:37;;;;;;;;;27.00;21.00;;;;;4.08;100.00;99867.78;6254280;22;44749;-84
2022/12/09 05:05:03;;;;;;;;;22.33;20.33;;;;;4.11;100.00;99864.34;6226659;22;47322;-83
2022/12/09 05:07:32;;;;;;;;;26.67;24.67;;;;;4.09;100.00;99864.28;6255596;22;45303;-83
2022/12/09 05:09:58;;;;;;;;;25.33;23.33;;;;;4.04;100.00;99868.56;6254713;22;45258;-83
2022/12/09 05:12:24;;;;;;;;;25.67;21.00;;;;;3.96;100.00;99864.84;6254622;22;45592;-83
2022/12/09 05:14:50;;;;;;;;;22.67;20.00;;;;;3.90;100.00;99875.19;6254178;22;45393;-83
2022/12/09 05:17:17;;;;;;;;;32.00;28.00;;;;;3.92;100.00;99869.13;6225945;22;45415;-82
2022/12/09 05:19:42;;;;;;;;;24.33;18.33;;;;;3.86;100.00;99863.72;6225918;22;45392;-83
2022/12/09 05:22:08;;;;;;;;;24.33;22.33;;;;;3.80;100.00;99864.44;6225615;22;45456;-84
2022/12/09 05:24:33;;;;;;;;;28.67;27.00;;;;;3.83;100.00;99875.88;6253058;22;45440;-83
2022/12/09 05:26:58;;;;;;;;;16.67;16.00;;;;;3.79;100.00;99878.41;6253877;22;45135;-82
2022/12/09 05:29:24;;;;;;;;;23.67;21.33;;;;;3.80;100.00;99874.94;6254987;22;45864;-82
2022/12/09 05:31:50;;;;;;;;;28.33;21.00;;;;;3.71;100.00;99853.63;6226133;22;45440;-82
2022/12/09 05:34:17;;;;;;;;;21.67;21.67;;;;;3.84;100.00;99881.19;6226645;22;47804;-83
2022/12/09 05:36:43;;;;;;;;;26.33;25.00;;;;;3.80;100.00;99869.69;6226407;22;45421;-84
2022/12/09 05:39:08;;;;;;;;;29.00;21.67;;;;;3.73;100.00;99875.59;6225565;22;45356;-83
2022/12/09 05:41:37;;;;;;;;;23.33;21.67;;;;;3.77;100.00;99880.09;6226038;22;45323;-83
2022/12/09 05:44:02;;;;;;;;;29.00;24.67;;;;;3.83;100.00;99883.75;6224768;22;46741;-83
2022/12/09 05:46:28;;;;;;;;;26.33;24.00;;;;;3.66;100.00;99860.53;6252048;22;45385;-83
2022/12/09 05:48:54;;;;;;;;;25.33;25.00;;;;;3.81;100.00;99881.09;6253224;22;45347;-82
2022/12/09 05:51:26;;;;;;;;;24.00;19.33;;;;;3.86;100.00;99875.94;6227092;22;45622;-83
2022/12/09 05:53:53;;;;;;;;;22.00;18.00;;;;;3.88;100.00;99883.03;6256381;22;45413;-83
2022/12/09 05:59:40;;;;;;;;;27.33;24.00;;;;;3.90;100.00;99888.31;6255968;22;45345;-83
2022/12/09 06:02:06;;;;;;;;;23.67;21.67;;;;;3.80;100.00;99887.22;6255158;22;45310;-83
2022/12/09 06:04:31;;;;;;;;;27.67;22.00;;;;;3.76;100.00;99882.72;6226699;22;46912;-83
2022/12/09 06:06:57;;;;;;;;;29.33;28.00;;;;;3.68;100.00;99898.28;6227282;22;45286;-82
2022/12/09 06:09:22;;;;;;;;;26.67;21.33;;;;;3.59;100.00;99896.25;6257025;22;45306;-82
2022/12/09 06:11:49;;;;;;;;;24.33;23.67;;;;;3.66;100.00;99905.22;6229289;22;45333;-82
2022/12/09 06:14:14;;;;;;;;;26.00;19.33;;;;;3.64;100.00;99901.66;6230136;22;48616;-83
2022/12/09 06:16:40;;;;;;;;;28.00;21.67;;;;;3.67;100.00;99908.75;6256254;22;44697;-82
2022/12/09 06:19:05;;;;;;;;;23.00;18.00;;;;;3.58;100.00;99899.75;6227125;22;45376;-83
2022/12/09 06:21:31;;;;;;;;;25.67;24.33;;;;;3.62;100.00;99900.72;6254346;22;45631;-83
2022/12/09 06:23:57;;;;;;;;;28.00;24.67;;;;;3.60;100.00;99908.56;6256385;22;45439;-83
2022/12/09 06:26:28;;;;;;;;;33.33;27.67;;;;;3.63;100.00;99923.53;6255353;22;45274;-82
2022/12/09 06:28:55;;;;;;;;;27.00;24.00;;;;;3.63;100.00;99913.00;6227936;22;45660;-83
2022/12/09 06:31:21;;;;;;;;;26.67;22.33;;;;;3.60;100.00;99912.94;6220205;22;45303;-82
2022/12/09 06:33:47;;;;;;;;;35.00;24.67;;;;;3.52;100.00;99917.97;6247735;22;46600;-82
2022/12/09 06:36:14;;;;;;;;;29.67;25.67;;;;;3.53;100.00;99921.50;6224296;22;45327;-83
2022/12/09 06:38:39;;;;;;;;;28.67;24.33;;;;;3.50;100.00;99916.16;6223041;22;45424;-83
2022/12/09 06:41:09;;;;;;;;;23.67;20.00;;;;;3.51;100.00;99912.66;6225711;22;45415;-83
2022/12/09 06:43:38;;;;;;;;;30.00;26.67;;;;;3.51;100.00;99910.03;6224176;22;45354;-83
2022/12/09 06:46:11;;;;;;;;;26.33;21.33;;;;;3.46;100.00;99904.66;6224066;22;45340;-83
2022/12/09 06:48:38;;;;;;;;;30.67;24.67;;;;;3.48;100.00;99910.84;6226346;22;45723;-82
2022/12/09 06:51:03;;;;;;;;;29.67;28.67;;;;;3.46;100.00;99917.81;6250562;22;44728;-82
2022/12/09 06:53:29;;;;;;;;;32.00;26.00;;;;;3.39;100.00;99898.34;6223436;22;47960;-81
2022/12/09 06:55:54;;;;;;;;;32.00;26.33;;;;;3.40;100.00;99896.59;6224488;22;45528;-82
2022/12/09 06:58:21;;;;;;;;;24.67;22.67;;;;;3.45;100.00;99907.22;6225151;22;45298;-82
2022/12/09 07:00:46;;;;;;;;;31.33;20.00;;;;;3.40;100.00;99902.72;6252498;22;45413;-82
2022/12/09 07:03:12;;;;;;;;;25.33;20.67;;;;;3.26;100.00;99896.19;6227264;22;46519;-82
2022/12/09 07:05:38;;;;;;;;;24.67;23.33;;;;;3.11;100.00;99919.34;6224090;22;45496;-81
2022/12/09 07:08:04;;;;;;;;;21.33;20.00;;;;;2.93;100.00;99912.72;6247036;22;45263;-81
2022/12/09 07:11:12;;;;;;;;;34.33;24.67;;;;;2.79;100.00;99921.88;6223812;22;45326;-81
2022/12/09 07:13:38;;;;;;;;;29.33;24.33;;;;;2.60;100.00;99926.50;6223303;22;47906;-82
2022/12/09 07:16:03;;;;;;;;;31.33;23.67;;;;;2.52;100.00;99932.34;6222925;22;44785;-82
2022/12/09 07:18:29;;;;;;;;;24.67;22.67;;;;;2.39;100.00;99918.84;6225344;22;44741;-83
2022/12/09 07:21:04;;;;;;;;;24.00;24.00;;;;;2.36;100.00;99923.06;6227891;22;45266;-83
2022/12/09 07:24:13;;;;;;;;;28.33;26.00;;;;;2.40;100.00;99946.88;6225842;22;45392;-82
2022/12/09 07:26:39;;;;;;;;;28.00;23.00;;;;;2.36;100.00;99944.06;6223776;22;45601;-81
2022/12/09 07:29:05;;;;;;;;;30.33;29.67;;;;;2.33;100.00;99941.34;6224025;22;44973;-82
2022/12/09 07:31:32;;;;;;;;;29.00;29.00;;;;;2.32;100.00;99947.44;6233565;22;45480;-82
2022/12/09 07:33:58;;;;;;;;;28.33;26.33;;;;;2.28;100.00;99941.19;6255617;22;46797;-83
2022/12/09 07:36:28;;;;;;;;;29.50;27.50;;;;;2.31;100.00;99943.03;6231723;22;45378;-82
2022/12/09 07:39:03;;;;;;;;;35.33;30.00;;;;;2.36;100.00;99944.06;6260202;22;45399;-82
2022/12/09 07:41:30;;;;;;;;;30.33;25.33;;;;;2.37;100.00;99936.25;6231643;22;44839;-83
2022/12/09 07:43:56;;;;;;;;;31.00;26.33;;;;;2.42;100.00;99943.38;6231463;22;48384;-84
2022/12/09 07:46:26;;;;;;;;;30.00;29.67;;;;;2.32;100.00;99926.44;6230347;22;45300;-84
2022/12/09 07:48:57;;;;;;;;;31.00;27.33;;;;;2.29;100.00;99895.75;6230563;22;45317;-84
2022/12/09 07:51:24;;;;;;;;;22.67;20.67;;;;;2.62;100.00;99949.31;6259545;22;45398;-83
2022/12/09 07:53:50;;;;;;;;;27.00;22.33;;;;;2.68;100.00;99946.88;6258508;22;45041;-83
2022/12/09 07:56:18;;;;;;;;;31.00;27.00;;;;;2.61;100.00;99932.69;6261083;22;45317;-83
2022/12/09 07:58:50;;;;;;;;;26.67;24.00;;;;;2.71;100.00;99949.63;6262023;22;45348;-82
2022/12/09 08:01:19;;;;;;;;;29.00;27.33;;;;;2.43;100.00;99909.34;6235361;22;45302;-83
2022/12/09 08:03:46;;;;;;;;;33.33;28.33;;;;;2.56;100.00;99934.25;6263508;22;45298;-83
2022/12/09 08:06:14;;;;;;;;;28.67;26.67;;;;;2.50;100.00;99932.31;6262159;22;44792;-84
2022/12/09 08:08:40;;;;;;;;;31.67;29.33;;;;;2.37;100.00;99917.88;6235696;22;45296;-84
2022/12/09 08:11:23;;;;;;;;;31.67;27.67;;;;;2.55;100.00;99956.97;6233797;22;45440;-84
2022/12/09 08:13:54;;;;;;;;;40.67;31.00;;;;;2.63;100.00;99959.88;6232295;22;45282;-83
2022/12/09 08:16:21;;;;;;;;;29.33;23.33;;;;;2.51;100.00;99918.34;6233236;22;45359;-83
2022/12/09 08:18:51;;;;;;;;;26.00;26.00;;;;;2.63;100.00;99915.25;6233394;22;45211;-84
2022/12/09 08:21:25;;;;;;;;;25.33;25.00;;;;;2.73;100.00;99929.56;6235491;22;44724;-84
2022/12/09 08:23:57;;;;;;;;;27.33;23.67;;;;;2.53;100.00;99898.31;6234160;22;46977;-83
2022/12/09 08:26:43;;;;;;;;;31.00;23.33;;;;;2.93;100.00;99961.69;6234476;22;45266;-83
2022/12/09 08:29:10;;;;;;;;;28.67;26.00;;;;;2.93;100.00;99949.47;6235097;22;44792;-84
2022/12/09 08:31:55;;;;;;;;;28.67;25.00;;;;;2.92;100.00;99941.53;6262514;22;44740;-83
2022/12/09 08:38:12;;;;;;;;;;;;;;;;;;;;;
2022/12/09 08:40:54;;;;;;;;;27.33;20.33;;;;;2.78;100.00;99909.59;6264921;22;67231;-85
2022/12/09 08:51:09;;;;;;;;;32.00;26.33;;;;;3.07;100.00;99954.25;6206941;23;44785;-84
2022/12/09 08:58:15;;;;;;;;;37.67;34.00;;;;;3.46;100.00;99965.13;6212049;22;45520;-84
2022/12/09 09:00:55;;;;;;;;;39.67;31.67;;;;;3.54;100.00;99960.97;6189639;22;45641;-83
2022/12/09 09:04:03;;;;;;;;;34.00;28.67;;;;;3.60;100.00;99961.16;6195945;22;44810;-84
2022/12/09 09:06:42;;;;;;;;;26.33;24.67;;;;;3.61;100.00;99946.25;6234446;22;44662;-83
2022/12/09 09:09:19;;;;;;;;;27.67;27.00;;;;;3.52;100.00;99925.88;6231384;22;44864;-85
2022/12/09 09:15:08;;;;;;;;;35.33;31.67;;;;;3.74;100.00;99953.66;6261993;22;44823;-85
2022/12/09 09:25:34;;;;;;;;;38.67;32.67;;;;;3.64;100.00;99956.88;6139355;23;44923;-84
2022/12/09 09:31:11;;;;;;;;;27.67;25.33;;;;;3.74;100.00;99966.81;6067796;23;45417;-84
2022/12/09 09:34:20;;;;;;;;;;;;;;;;;;;;;
2022/12/09 09:40:37;;;;;;;;;38.00;32.33;;;;;3.81;100.00;99939.84;5939941;23;45342;-84
2022/12/09 09:43:26;;;;;;;;;36.33;29.67;;;;;3.68;100.00;99916.69;5915494;24;45455;-86
2022/12/09 09:45:55;;;;;;;;;36.33;35.00;;;;;4.04;100.00;99972.91;5911168;24;45729;-84
2022/12/09 09:48:53;;;;;;;;;;;;;;;;;;;;;
2022/12/09 09:51:28;;;;;;;;;37.00;33.33;;;;;3.78;100.00;99918.72;5908148;24;72114;-83
2022/12/09 09:55:08;;;;;;;;;;;;;;;;;;;;;
2022/12/09 10:01:38;;;;;;;;;35.33;32.67;;;;;4.03;100.00;99953.59;6077649;23;45559;-85
2022/12/09 10:04:33;;;;;;;;;34.33;30.33;;;;;4.25;100.00;99964.72;6047298;23;45607;-85
2022/12/09 10:08:04;;;;;;;;;28.33;24.33;;;;;4.18;100.00;99966.25;6024553;23;44758;-85
2022/12/09 10:10:49;;;;;;;;;33.67;32.00;;;;;4.16;100.00;99966.25;5981538;23;44763;-85
2022/12/09 10:13:45;;;;;;;;;31.33;27.33;;;;;4.15;100.00;99956.56;6078731;23;47482;-83
2022/12/09 10:20:30;;;;;;;;;32.00;30.00;;;;;4.11;100.00;99946.81;5957448;23;45406;-84
2022/12/09 10:23:17;;;;;;;;;41.33;26.00;;;;;3.85;100.00;99892.59;5943219;23;44878;-85
2022/12/09 10:25:56;;;;;;;;;33.00;30.00;;;;;3.81;100.00;99886.34;5965672;23;45611;-85
2022/12/09 10:28:39;;;;;;;;;36.67;31.00;;;;;4.14;100.00;99925.84;5965446;23;44947;-85
2022/12/09 10:31:41;;;;;;;;;45.33;36.33;;;;;4.44;100.00;99943.28;5967462;23;45384;-84
2022/12/09 10:34:10;;;;;;;;;32.33;32.33;;;;;4.39;100.00;99913.31;5938695;24;45401;-82
2022/12/09 10:40:48;;;;;;;;;;;;;;;;;;;;;
2022/12/09 10:47:27;;;;;;;;;38.67;34.33;;;;;4.29;100.00;99924.47;5970023;23;44660;-82
2022/12/09 10:50:00;;;;;;;;;37.67;32.00;;;;;4.39;100.00;99921.22;5995190;23;45481;-84
2022/12/09 10:52:43;;;;;;;;;36.00;33.00;;;;;4.28;100.00;99888.44;5973068;23;44757;-83
2022/12/09 10:55:33;;;;;;;;;40.67;34.00;;;;;4.47;100.00;99924.94;5972012;23;45368;-85
2022/12/09 10:58:31;;;;;;;;;40.67;37.00;;;;;4.47;100.00;99924.94;6182971;22;45363;-84
2022/12/09 11:01:14;;;;;;;;;38.33;35.00;;;;;4.25;100.00;99905.06;6203889;22;48144;-85
2022/12/09 11:03:56;;;;;;;;;36.33;30.67;;;;;3.98;100.00;99873.66;6231566;22;44664;-86
2022/12/09 11:06:38;;;;;;;;;37.33;35.33;;;;;4.27;100.00;99913.00;6232975;22;44811;-86
2022/12/09 11:09:52;;;;;;;;;42.00;37.00;;;;;4.34;100.00;99914.94;6200763;22;45399;-83
2022/12/09 11:12:45;;;;;;;;;;;;;;;;;;;;;
2022/12/09 11:15:30;;;;;;;;;38.33;33.33;;;;;4.35;100.00;99911.47;6133248;23;72850;-85
2022/12/09 11:18:03;;;;;;;;;32.67;30.00;;;;;4.32;100.00;99912.28;6041926;23;45420;-84
2022/12/09 11:20:33;;;;;;;;;31.00;30.00;;;;;4.23;100.00;99905.88;6112093;23;44975;-85
2022/12/09 11:26:23;;;;;;;;;38.67;35.33;;;;;3.89;100.00;99850.63;6140834;23;45511;-84
2022/12/09 11:29:31;;;;;;;;;44.00;40.00;;;;;4.13;100.00;99899.47;6092621;23;45453;-84
2022/12/09 11:32:05;;;;;;;;;40.00;35.33;;;;;3.80;100.00;99848.66;6111321;23;45466;-85
2022/12/09 11:34:40;;;;;;;;;34.33;34.33;;;;;4.06;100.00;99887.00;6114592;23;45477;-84
2022/12/09 11:37:20;;;;;;;;;45.33;40.00;;;;;3.93;100.00;99881.41;6110062;23;45380;-84
2022/12/09 11:40:20;;;;;;;;;46.33;43.33;;;;;4.04;100.00;99880.81;6107434;23;45302;-84
2022/12/09 11:49:42;;;;;;;;;62.50;50.50;;;;;4.31;100.00;99896.44;6195602;22;44788;-84
2022/12/09 11:52:27;;;;;;;;;43.67;34.67;;;;;4.38;100.00;99901.00;6201057;22;45189;-84
2022/12/09 11:55:14;;;;;;;;;49.67;41.00;;;;;4.50;100.00;99903.94;6230020;22;45347;-83
2022/12/09 11:58:20;;;;;;;;;44.67;41.67;;;;;4.52;100.00;99904.84;6200987;22;45453;-85
2022/12/09 12:01:10;;;;;;;;;35.67;35.67;;;;;4.49;100.00;99873.22;6201657;22;45346;-85
2022/12/09 12:03:41;;;;;;;;;46.67;37.67;;;;;4.57;100.00;99882.19;6227473;22;44761;-84
2022/12/09 12:06:33;;;;;;;;;33.00;27.00;;;;;4.41;100.00;99859.84;6203752;22;45478;-84
2022/12/09 12:09:43;;;;;;;;;;;;;;;;;;;;;
2022/12/09 12:13:22;;;;;;;;;;;;;;;;;;;;;
2022/12/09 12:16:27;;;;;;;;;51.33;39.00;;;;;3.94;100.00;99888.47;6234378;22;45441;-86
2022/12/09 12:19:19;;;;;;;;;45.33;39.00;;;;;3.95;100.00;99894.63;6080858;23;45603;-83
2022/12/09 12:22:09;;;;;;;;;43.33;40.00;;;;;4.03;100.00;99887.81;6079698;23;46745;-86
2022/12/09 12:25:06;;;;;;;;;43.33;38.00;;;;;4.11;100.00;99891.53;6204044;22;45599;-85
2022/12/09 12:27:41;;;;;;;;;44.00;36.00;;;;;4.03;100.00;99892.19;6232966;22;45374;-82
2022/12/09 12:30:47;;;;;;;;;47.67;35.33;;;;;3.97;100.00;99887.66;6204982;22;44876;-86
2022/12/09 12:33:50;;;;;;;;;47.67;41.00;;;;;4.14;100.00;99894.28;6065466;23;46236;-86
2022/12/09 12:36:21;;;;;;;;;49.67;41.67;;;;;4.33;100.00;99887.72;6107430;23;45421;-85
2022/12/09 12:39:19;;;;;;;;;27.33;26.33;;;;;4.43;100.00;99893.22;6109055;23;44748;-85
2022/12/09 12:42:25;;;;;;;;;45.67;36.33;;;;;4.33;100.00;99886.84;6109201;23;45423;-84
2022/12/09 12:48:32;;;;;;;;;39.33;29.33;;;;;4.10;100.00;99865.19;6112729;23;45494;-84
2022/12/09 12:51:28;;;;;;;;;39.33;31.67;;;;;4.38;100.00;99882.56;6112227;23;44794;-83
2022/12/09 13:01:09;;;;;;;;;37.00;32.33;;;;;4.54;100.00;99876.81;6024541;23;44839;-85
2022/12/09 13:04:18;;;;;;;;;30.33;27.00;;;;;4.30;100.00;99823.56;6021696;23;45344;-85
2022/12/09 13:07:28;;;;;;;;;34.67;31.00;;;;;4.55;100.00;99878.63;6023952;23;44621;-85
2022/12/09 13:10:23;;;;;;;;;39.67;33.67;;;;;4.63;100.00;99872.66;6030837;23;48195;-85
2022/12/09 13:12:58;;;;;;;;;38.00;34.67;;;;;4.61;100.00;99878.75;6076920;23;45393;-83
2022/12/09 13:15:40;;;;;;;;;36.67;34.67;;;;;4.40;100.00;99857.16;6080586;23;44902;-85
2022/12/09 13:21:50;;;;;;;;;;;;;;;;;;;;;
2022/12/09 13:25:04;;;;;;;;;39.00;35.33;;;;;4.28;100.00;99883.19;6081456;23;71954;-85
2022/12/09 13:47:37;;;;;;;;;37.67;29.33;;;;;3.88;100.00;99872.53;6262025;22;45262;-86
2022/12/09 13:50:41;;;;;;;;;30.67;29.00;;;;;3.90;100.00;99862.03;6262674;22;44811;-83
2022/12/09 13:56:42;;;;;;;;;36.33;34.00;;;;;3.77;100.00;99861.69;6238424;22;44857;-83
2022/12/09 14:12:36;;;;;;;;;30.00;27.00;;;;;3.71;100.00;99855.38;6140743;23;45002;-86